CheckWX is a tool to help pilots better visualize weather data.  It is not intended as a substitute for an official pre-flight weather briefing.

19:44:26 UTC

KCSV TAF
Crossville Memorial-Whitson Field Airport
Crossville, Tennessee, USA
KCSV 211727Z 2118/2218 20004KT P6SM SKC

Sep-21@
18:00 UTC

Sep-21 @ 18:00 UTC

Sep-22@
18:00 UTC

Sep-22 @ 18:00 UTC

KCSV 211727Z 2118/2218 20004KT P6SM SKC
Wind
  • 200° at 4 KTS
Cloud Levels
  • Clear skies